createdAt,value
2018-06-12T00:00:32.188Z,9.65
2018-06-12T00:03:00.212Z,10.82
2018-06-12T00:05:28.561Z,10.82
2018-06-12T00:07:56.874Z,12.45
2018-06-12T00:10:25.208Z,10.72
2018-06-12T00:12:53.525Z,11.63
2018-06-12T00:15:21.858Z,13.00
2018-06-12T00:17:50.208Z,12.05
2018-06-12T00:20:18.541Z,16.10
2018-06-12T00:22:46.844Z,16.07
2018-06-12T00:25:15.168Z,14.78
2018-06-12T00:27:43.472Z,17.12
2018-06-12T00:30:11.794Z,12.63
2018-06-12T00:32:40.165Z,13.90
2018-06-12T00:35:08.497Z,15.38
2018-06-12T00:37:36.814Z,15.50
2018-06-12T00:40:05.171Z,15.45
2018-06-12T00:42:33.489Z,14.30
2018-06-12T00:45:01.819Z,13.35
2018-06-12T00:47:30.133Z,12.55
2018-06-12T00:49:58.487Z,16.67
2018-06-12T00:52:26.797Z,16.42
2018-06-12T00:54:55.124Z,16.23
2018-06-12T00:57:23.465Z,14.55
2018-06-12T00:59:51.841Z,11.88
2018-06-12T01:02:20.148Z,14.23
2018-06-12T01:04:48.209Z,13.98
2018-06-12T01:07:16.252Z,12.95
2018-06-12T01:09:44.617Z,13.88
2018-06-12T01:12:12.957Z,11.85
2018-06-12T01:14:41.008Z,13.28
2018-06-12T01:17:09.372Z,11.90
2018-06-12T01:19:37.708Z,16.50
2018-06-12T01:22:06.066Z,19.17
2018-06-12T01:24:34.382Z,16.87
2018-06-12T01:27:02.719Z,18.42
2018-06-12T01:29:30.758Z,16.27
2018-06-12T01:31:59.093Z,11.10
2018-06-12T01:34:27.416Z,11.48
2018-06-12T01:36:55.740Z,12.05
2018-06-12T01:39:24.048Z,17.95
2018-06-12T01:41:52.377Z,14.75
2018-06-12T01:44:20.412Z,12.37
2018-06-12T01:46:48.741Z,15.90
2018-06-12T01:49:16.771Z,10.08
2018-06-12T01:51:45.125Z,13.85
2018-06-12T01:54:13.436Z,12.20
2018-06-12T01:56:41.772Z,11.25
2018-06-12T01:59:10.100Z,14.20
2018-06-12T02:01:38.435Z,9.35
2018-06-12T02:04:06.740Z,12.33
2018-06-12T02:06:35.076Z,11.48
2018-06-12T02:09:03.180Z,13.55
2018-06-12T02:11:31.501Z,12.15
2018-06-12T02:13:59.805Z,13.28
2018-06-12T02:16:28.137Z,16.55
2018-06-12T02:18:56.457Z,14.68
2018-06-12T02:21:24.777Z,9.33
2018-06-12T02:23:53.090Z,14.13
2018-06-12T02:26:21.433Z,12.10
2018-06-12T02:28:49.733Z,10.03
2018-06-12T02:31:18.062Z,12.55
2018-06-12T02:33:46.372Z,16.80
2018-06-12T02:36:14.715Z,12.50
2018-06-12T02:38:43.029Z,18.02
2018-06-12T02:41:11.361Z,15.50
2018-06-12T02:43:39.689Z,13.25
2018-06-12T02:46:08.045Z,12.50
2018-06-12T02:48:36.350Z,15.00
2018-06-12T02:51:04.669Z,19.67
2018-06-12T02:53:33.017Z,19.52
2018-06-12T02:56:01.344Z,17.02
2018-06-12T02:58:29.681Z,20.10
2018-06-12T03:00:57.989Z,18.67
2018-06-12T03:03:26.317Z,16.32
2018-06-12T03:05:54.637Z,21.05
2018-06-12T03:08:22.978Z,19.27
2018-06-12T03:10:51.296Z,12.78
2018-06-12T03:13:19.345Z,17.00
2018-06-12T03:15:47.673Z,16.48
2018-06-12T03:18:16.016Z,18.55
2018-06-12T03:20:45.309Z,17.55
2018-06-12T03:23:13.695Z,14.65
2018-06-12T03:25:41.988Z,19.12
2018-06-12T03:28:10.323Z,23.73
2018-06-12T03:30:38.647Z,20.20
2018-06-12T03:33:06.976Z,20.70
2018-06-12T03:35:35.310Z,17.35
2018-06-12T03:38:03.643Z,20.50
2018-06-12T03:40:31.963Z,20.68
2018-06-12T03:43:00.292Z,24.70
2018-06-12T03:45:28.609Z,20.85
2018-06-12T03:47:56.691Z,18.07
2018-06-12T03:50:24.732Z,20.95
2018-06-12T03:52:53.064Z,17.85
2018-06-12T03:55:21.376Z,23.45
2018-06-12T03:57:49.746Z,18.85
2018-06-12T04:00:18.057Z,20.02
2018-06-12T04:02:46.384Z,16.73
2018-06-12T04:05:14.701Z,22.70
2018-06-12T04:07:43.099Z,13.90
2018-06-12T04:10:11.369Z,16.30
2018-06-12T04:12:39.697Z,17.50
2018-06-12T04:15:08.075Z,13.32
2018-06-12T04:17:36.382Z,16.42
2018-06-12T04:20:04.696Z,24.55
2018-06-12T04:22:32.756Z,16.40
2018-06-12T04:25:01.070Z,14.68
2018-06-12T04:27:29.397Z,19.98
2018-06-12T04:29:57.740Z,20.70
2018-06-12T04:32:26.060Z,22.37
2018-06-12T04:34:54.403Z,13.83
2018-06-12T04:37:22.716Z,18.85
2018-06-12T04:39:51.064Z,21.40
2018-06-12T04:42:19.386Z,15.55
2018-06-12T04:44:47.711Z,24.32
2018-06-12T04:47:16.027Z,15.88
2018-06-12T04:49:44.376Z,21.62
2018-06-12T04:52:12.697Z,16.23
2018-06-12T04:54:41.066Z,15.98
2018-06-12T04:57:09.354Z,25.30
2018-06-12T04:59:37.716Z,14.45
2018-06-12T05:02:06.417Z,18.25
2018-06-12T05:04:34.736Z,18.62
2018-06-12T05:07:03.038Z,16.85
2018-06-12T05:09:31.379Z,19.05
2018-06-12T05:11:59.422Z,20.62
2018-06-12T05:14:27.768Z,17.82
2018-06-12T05:16:56.090Z,17.87
2018-06-12T05:19:24.449Z,18.60
2018-06-12T05:21:52.779Z,18.85
2018-06-12T05:24:21.108Z,23.27
2018-06-12T05:26:49.425Z,19.90
2018-06-12T05:29:17.491Z,21.62
2018-06-12T05:31:45.812Z,21.35
2018-06-12T05:34:14.172Z,19.32
2018-06-12T05:36:42.493Z,18.02
2018-06-12T05:39:11.617Z,23.38
2018-06-12T05:41:40.397Z,20.48
2018-06-12T05:44:08.777Z,30.35
2018-06-12T05:46:37.088Z,22.55
2018-06-12T05:49:05.169Z,19.37
2018-06-12T05:51:33.509Z,16.97
2018-06-12T05:54:01.868Z,18.65
2018-06-12T05:56:30.186Z,20.90
2018-06-12T05:58:58.561Z,18.95
2018-06-12T06:01:26.905Z,25.02
2018-06-12T06:03:55.220Z,17.12
2018-06-12T06:06:23.561Z,16.62
2018-06-12T06:08:51.883Z,34.80
2018-06-12T06:11:20.212Z,23.02
2018-06-12T06:13:48.516Z,22.25
2018-06-12T06:16:16.844Z,22.48
2018-06-12T06:18:45.164Z,22.60
2018-06-12T06:21:13.511Z,20.95
2018-06-12T06:23:41.816Z,23.30
2018-06-12T06:26:10.148Z,18.62
2018-06-12T06:28:38.196Z,24.30
2018-06-12T06:31:06.544Z,19.02
2018-06-12T06:33:34.577Z,20.68
2018-06-12T06:36:02.912Z,21.37
2018-06-12T06:38:31.229Z,23.45
2018-06-12T06:40:59.545Z,24.00
2018-06-12T06:43:27.872Z,24.37
2018-06-12T06:45:56.210Z,22.77
2018-06-12T06:48:24.538Z,23.35
2018-06-12T06:50:52.881Z,22.37
2018-06-12T06:53:21.200Z,20.68
2018-06-12T06:55:49.537Z,24.92
2018-06-12T06:58:17.891Z,27.17
2018-06-12T07:00:46.229Z,21.65
2018-06-12T07:03:14.265Z,19.87
2018-06-12T07:05:42.633Z,27.25
2018-06-12T07:08:10.937Z,34.60
2018-06-12T07:10:39.280Z,22.32
2018-06-12T07:13:07.589Z,20.75
2018-06-12T07:15:35.922Z,25.37
2018-06-12T07:18:04.238Z,24.60
2018-06-12T07:20:43.833Z,22.02
2018-06-12T07:23:12.157Z,24.55
2018-06-12T07:25:40.509Z,25.50
2018-06-12T07:28:08.821Z,25.37
2018-06-12T07:30:37.149Z,22.10
2018-06-12T07:33:05.681Z,20.17
2018-06-12T07:35:34.017Z,24.43
2018-06-12T07:38:02.342Z,22.32
2018-06-12T07:40:30.672Z,27.62
2018-06-12T07:42:59.008Z,18.37
2018-06-12T07:45:27.351Z,26.95
2018-06-12T07:47:55.655Z,24.05
2018-06-12T07:50:24.013Z,21.30
2018-06-12T07:52:52.464Z,21.73
2018-06-12T07:55:20.769Z,17.17
2018-06-12T07:57:49.113Z,20.92
2018-06-12T08:00:17.465Z,20.55
2018-06-12T08:02:45.801Z,16.97
2018-06-12T08:05:14.113Z,19.07
2018-06-12T08:07:42.450Z,15.15
2018-06-12T08:10:10.770Z,23.05
2018-06-12T08:12:39.111Z,22.55
2018-06-12T08:15:07.455Z,20.15
2018-06-12T08:17:35.794Z,19.50
2018-06-12T08:20:04.142Z,21.05
2018-06-12T08:22:32.489Z,20.15
2018-06-12T08:25:00.536Z,20.88
2018-06-12T08:27:28.876Z,29.40
2018-06-12T08:29:57.313Z,19.57
2018-06-12T08:32:25.540Z,20.50
2018-06-12T08:34:53.852Z,18.92
2018-06-12T08:37:22.181Z,23.00
2018-06-12T08:39:50.550Z,20.15
2018-06-12T08:42:18.844Z,21.02
2018-06-12T08:44:47.165Z,19.73
2018-06-12T08:47:16.205Z,20.20
2018-06-12T08:49:44.510Z,21.42
2018-06-12T08:52:12.840Z,19.67
2018-06-12T08:54:41.144Z,16.67
2018-06-12T08:57:09.486Z,16.85
2018-06-12T08:59:37.820Z,18.10
2018-06-12T09:02:06.467Z,16.27
2018-06-12T09:04:34.516Z,16.97
2018-06-12T09:07:02.845Z,17.40
2018-06-12T09:09:31.161Z,14.33
2018-06-12T09:11:59.504Z,17.50
2018-06-12T09:14:27.828Z,16.82
2018-06-12T09:16:56.170Z,18.32
2018-06-12T09:19:24.481Z,18.77
2018-06-12T09:21:52.830Z,15.25
2018-06-12T09:24:21.153Z,16.00
2018-06-12T09:26:50.342Z,17.20
2018-06-12T09:29:18.663Z,17.87
2018-06-12T09:31:46.989Z,15.05
2018-06-12T09:34:15.357Z,24.55
2018-06-12T09:36:43.752Z,17.85
2018-06-12T09:39:12.077Z,14.45
2018-06-12T09:41:40.387Z,20.43
2018-06-12T09:44:08.717Z,11.97
2018-06-12T09:46:37.060Z,15.85
2018-06-12T09:49:05.469Z,16.30
2018-06-12T09:51:33.770Z,16.37
2018-06-12T09:54:02.137Z,14.25
2018-06-12T09:56:30.517Z,11.95
2018-06-12T09:58:58.612Z,14.80
2018-06-12T10:01:27.573Z,13.43
2018-06-12T10:03:55.917Z,9.08
2018-06-12T10:06:24.261Z,9.05
2018-06-12T10:08:52.795Z,14.53
2018-06-12T10:11:21.224Z,14.47
2018-06-12T10:13:49.717Z,8.70
2018-06-12T10:16:18.144Z,9.38
2018-06-12T10:18:46.514Z,8.07
2018-06-12T10:21:14.837Z,9.40
2018-06-12T10:23:43.172Z,9.03
2018-06-12T10:26:11.497Z,8.10
2018-06-12T10:28:40.500Z,11.60
2018-06-12T10:31:08.572Z,9.83
2018-06-12T10:33:36.916Z,16.07
2018-06-12T10:36:05.277Z,12.67
2018-06-12T10:38:33.622Z,11.60
2018-06-12T10:41:02.018Z,8.17
2018-06-12T10:43:30.365Z,8.67
2018-06-12T10:45:58.689Z,11.10
2018-06-12T10:48:27.078Z,13.10
2018-06-12T10:50:55.396Z,16.90
2018-06-12T10:53:23.969Z,8.57
2018-06-12T10:55:52.089Z,8.13
2018-06-12T10:58:21.731Z,12.63
2018-06-12T11:00:50.701Z,9.90
2018-06-12T11:03:19.245Z,10.40
2018-06-12T11:05:47.928Z,9.87
2018-06-12T11:08:16.284Z,10.57
2018-06-12T11:10:45.693Z,13.20
2018-06-12T11:13:13.866Z,6.80
2018-06-12T11:15:42.184Z,13.70
2018-06-12T11:18:10.518Z,10.97
2018-06-12T11:20:38.566Z,8.60
2018-06-12T11:23:06.926Z,13.83
2018-06-12T11:25:35.228Z,9.83
2018-06-12T11:28:03.553Z,7.27
2018-06-12T11:30:31.886Z,7.43
2018-06-12T11:33:00.248Z,12.73
2018-06-12T11:35:28.525Z,9.90
2018-06-12T11:37:56.857Z,11.03
2018-06-12T11:40:25.193Z,12.30
2018-06-12T11:42:53.542Z,13.38
2018-06-12T11:45:21.884Z,9.48
2018-06-12T11:47:50.262Z,10.48
2018-06-12T11:50:18.625Z,16.32
2018-06-12T11:52:46.952Z,14.28
2018-06-12T11:55:15.295Z,28.17
2018-06-12T11:57:43.613Z,9.23
2018-06-12T12:00:11.965Z,14.95
2018-06-12T12:02:40.010Z,10.25
2018-06-12T12:05:08.357Z,8.28
2018-06-12T12:07:36.908Z,11.25
2018-06-12T12:10:05.246Z,10.38
2018-06-12T12:12:33.563Z,9.60
2018-06-12T12:15:01.908Z,10.08
2018-06-12T12:17:30.221Z,16.37
2018-06-12T12:19:58.785Z,14.85
2018-06-12T12:22:26.848Z,26.27
2018-06-12T12:24:55.185Z,32.93
2018-06-12T12:27:23.509Z,23.55
2018-06-12T12:29:51.861Z,31.77
2018-06-12T12:32:20.237Z,27.62
2018-06-12T12:34:48.582Z,31.87
2018-06-12T12:37:16.892Z,39.05
2018-06-12T12:39:45.249Z,36.75
2018-06-12T12:42:13.573Z,30.75
2018-06-12T12:44:41.912Z,27.65
2018-06-12T12:47:10.257Z,29.42
2018-06-12T12:49:38.400Z,25.72
2018-06-12T12:52:06.718Z,17.12
2018-06-12T12:54:35.074Z,18.57
2018-06-12T12:57:03.437Z,13.83
2018-06-12T12:59:31.772Z,14.18
2018-06-12T13:02:00.110Z,14.38
2018-06-12T13:04:28.424Z,27.35
2018-06-12T13:06:56.757Z,19.70
2018-06-12T13:09:25.086Z,20.17
2018-06-12T13:11:53.425Z,24.77
2018-06-12T13:14:21.732Z,22.27
2018-06-12T13:16:50.073Z,29.12
2018-06-12T13:19:18.391Z,22.20
2018-06-12T13:21:46.720Z,26.68
2018-06-12T13:24:15.040Z,27.73
2018-06-12T13:26:43.439Z,25.23
2018-06-12T13:29:11.717Z,24.20
2018-06-12T13:31:40.065Z,18.70
2018-06-12T13:34:08.390Z,24.45
2018-06-12T13:36:36.726Z,24.47
2018-06-12T13:39:05.423Z,26.75
2018-06-12T13:41:33.752Z,24.07
2018-06-12T13:44:02.080Z,32.13
2018-06-12T13:46:30.460Z,30.30
2018-06-12T13:48:58.753Z,30.15
2018-06-12T13:51:27.096Z,34.43
2018-06-12T13:53:55.400Z,25.37
2018-06-12T13:56:23.746Z,37.17
2018-06-12T13:58:52.085Z,29.12
2018-06-12T14:01:20.420Z,24.60
2018-06-12T14:03:48.745Z,28.75
2018-06-12T14:06:17.089Z,32.38
2018-06-12T14:08:45.409Z,23.60
2018-06-12T14:11:13.762Z,23.67
2018-06-12T14:13:42.176Z,28.38
2018-06-12T14:16:10.433Z,30.80
2018-06-12T14:18:38.744Z,30.88
2018-06-12T14:21:07.081Z,30.32
2018-06-12T14:23:35.401Z,32.25
2018-06-12T14:26:03.741Z,28.77
2018-06-12T14:28:32.062Z,31.02
2018-06-12T14:31:00.421Z,31.70
2018-06-12T14:33:28.741Z,26.07
2018-06-12T14:35:56.848Z,27.70
2018-06-12T14:38:25.197Z,29.72
2018-06-12T14:40:53.250Z,28.65
2018-06-12T14:43:21.577Z,29.37
2018-06-12T14:45:49.892Z,25.30
2018-06-12T14:48:18.242Z,29.25
2018-06-12T14:50:46.589Z,28.00
2018-06-12T14:53:14.653Z,31.07
2018-06-12T14:55:42.705Z,30.85
2018-06-12T14:58:11.065Z,27.62
2018-06-12T15:00:39.382Z,25.32
2018-06-12T15:03:07.716Z,24.52
2018-06-12T15:05:36.047Z,32.90
2018-06-12T15:08:04.407Z,23.80
2018-06-12T15:10:32.729Z,22.48
2018-06-12T15:13:01.076Z,18.52
2018-06-12T15:15:29.134Z,19.17
2018-06-12T15:17:57.472Z,19.95
2018-06-12T15:20:25.781Z,26.52
2018-06-12T15:22:54.133Z,21.82
2018-06-12T15:25:22.489Z,20.70
2018-06-12T15:27:50.844Z,22.17
2018-06-12T15:30:19.231Z,23.80
2018-06-12T15:32:47.589Z,25.52
2018-06-12T15:35:15.913Z,23.18
2018-06-12T15:37:44.253Z,21.60
2018-06-12T15:40:12.581Z,20.97
2018-06-12T15:42:40.950Z,24.80
2018-06-12T15:45:09.271Z,24.23
2018-06-12T15:47:37.613Z,23.83
2018-06-12T15:50:05.963Z,27.37
2018-06-12T15:52:34.336Z,21.40
2018-06-12T15:55:02.650Z,23.02
2018-06-12T15:57:30.981Z,28.27
2018-06-12T15:59:59.306Z,24.70
2018-06-12T16:02:27.637Z,22.10
2018-06-12T16:04:55.985Z,27.73
2018-06-12T16:07:24.369Z,19.67
2018-06-12T16:09:52.722Z,26.07
2018-06-12T16:12:21.038Z,23.92
2018-06-12T16:14:49.365Z,31.12
2018-06-12T16:17:17.669Z,29.12
2018-06-12T16:19:46.021Z,24.85
2018-06-12T16:22:14.065Z,29.92
2018-06-12T16:24:42.409Z,33.18
2018-06-12T16:27:10.713Z,27.07
2018-06-12T16:29:39.048Z,28.27
2018-06-12T16:32:07.364Z,27.90
2018-06-12T16:34:35.728Z,23.83
2018-06-12T16:37:04.053Z,25.00
2018-06-12T16:39:32.127Z,25.20
2018-06-12T16:42:00.452Z,23.95
2018-06-12T16:44:28.793Z,29.15
2018-06-12T16:46:57.098Z,28.20
2018-06-12T16:49:25.434Z,26.27
2018-06-12T16:51:53.774Z,26.33
2018-06-12T16:54:22.108Z,21.57
2018-06-12T16:56:50.431Z,26.50
2018-06-12T16:59:18.825Z,25.17
2018-06-12T17:01:47.136Z,22.73
2018-06-12T17:04:15.469Z,23.60
2018-06-12T17:06:43.806Z,25.25
2018-06-12T17:09:11.864Z,22.75
2018-06-12T17:11:42.476Z,25.75
2018-06-12T17:14:10.814Z,21.12
2018-06-12T17:16:39.136Z,26.45
2018-06-12T17:19:07.497Z,23.35
2018-06-12T17:21:35.920Z,25.48
2018-06-12T17:24:03.979Z,24.32
2018-06-12T17:26:32.325Z,20.25
2018-06-12T17:29:00.677Z,19.92
2018-06-12T17:31:29.164Z,20.05
2018-06-12T17:33:57.525Z,21.68
2018-06-12T17:36:25.870Z,20.05
2018-06-12T17:38:54.195Z,25.08
2018-06-12T17:41:22.509Z,27.32
2018-06-12T17:43:50.893Z,24.20
2018-06-12T17:46:19.200Z,22.85
2018-06-12T17:48:47.544Z,18.20
2018-06-12T17:51:15.861Z,19.57
2018-06-12T17:53:44.206Z,25.92
2018-06-12T17:56:12.517Z,18.48
2018-06-12T17:58:40.894Z,25.70
2018-06-12T18:01:09.202Z,24.23
2018-06-12T18:03:37.549Z,22.75
2018-06-12T18:06:05.886Z,23.73
2018-06-12T18:08:33.945Z,23.40
2018-06-12T18:11:02.276Z,18.40
2018-06-12T18:13:30.588Z,19.52
2018-06-12T18:15:58.920Z,18.02
2018-06-12T18:18:27.245Z,18.65
2018-06-12T18:20:55.572Z,16.07
2018-06-12T18:23:23.912Z,20.65
2018-06-12T18:25:52.241Z,21.17
2018-06-12T18:28:20.558Z,16.70
2018-06-12T18:30:48.903Z,22.00
2018-06-12T18:33:17.246Z,23.52
2018-06-12T18:35:45.609Z,27.10
2018-06-12T18:38:13.926Z,32.03
2018-06-12T18:40:42.281Z,27.62
2018-06-12T18:43:10.331Z,28.10
2018-06-12T18:45:38.684Z,26.35
2018-06-12T18:48:07.001Z,25.30
2018-06-12T18:50:35.337Z,28.38
2018-06-12T18:53:03.653Z,31.30
2018-06-12T18:55:31.981Z,26.82
2018-06-12T18:58:00.308Z,33.38
2018-06-12T19:00:28.652Z,32.13
2018-06-12T19:02:56.977Z,36.73
2018-06-12T19:05:25.325Z,44.75
2018-06-12T19:07:53.646Z,44.98
2018-06-12T19:10:21.983Z,42.48
2018-06-12T19:12:50.301Z,54.08
2018-06-12T19:15:18.381Z,44.35
2018-06-12T19:17:46.437Z,57.55
2018-06-12T19:20:14.532Z,57.15
2018-06-12T19:22:42.849Z,59.50
2018-06-12T19:25:11.181Z,64.12
2018-06-12T19:27:39.505Z,67.53
2018-06-12T19:30:07.853Z,59.90
2018-06-12T19:32:35.895Z,62.58
2018-06-12T19:35:04.262Z,65.12
2018-06-12T19:37:32.586Z,70.22
2018-06-12T19:40:00.912Z,78.30
2018-06-12T19:42:29.282Z,69.53
2018-06-12T19:44:58.222Z,76.05
2018-06-12T19:47:26.542Z,78.80
2018-06-12T19:49:54.887Z,76.17
2018-06-12T19:52:23.547Z,75.67
2018-06-12T19:54:51.982Z,68.97
2018-06-12T19:57:20.313Z,69.35
2018-06-12T19:59:48.647Z,77.20
2018-06-12T20:02:16.976Z,71.20
2018-06-12T20:04:45.032Z,63.40
2018-06-12T20:07:13.366Z,69.35
2018-06-12T20:09:41.688Z,56.33
2018-06-12T20:12:10.030Z,73.65
2018-06-12T20:14:38.346Z,60.50
2018-06-12T20:17:06.689Z,54.18
2018-06-12T20:19:35.023Z,57.13
2018-06-12T20:22:03.352Z,56.95
2018-06-12T20:24:31.669Z,59.42
2018-06-12T20:27:00.022Z,46.60
2018-06-12T20:29:28.357Z,43.92
2018-06-12T20:31:56.689Z,40.85
2018-06-12T20:34:25.076Z,33.13
2018-06-12T20:36:53.424Z,32.53
2018-06-12T20:39:21.733Z,26.62
2018-06-12T20:41:50.072Z,22.00
2018-06-12T20:44:18.392Z,20.08
2018-06-12T20:46:46.805Z,20.20
2018-06-12T20:49:15.125Z,20.65
2018-06-12T20:51:43.487Z,20.17
2018-06-12T20:54:11.896Z,21.57
2018-06-12T20:56:40.244Z,24.00
2018-06-12T20:59:08.601Z,25.82
2018-06-12T21:01:36.932Z,22.60
2018-06-12T21:04:05.244Z,29.70
2018-06-12T21:06:33.603Z,33.92
2018-06-12T21:09:01.925Z,39.23
2018-06-12T21:11:30.252Z,42.70
2018-06-12T21:13:58.589Z,43.68
2018-06-12T21:16:26.904Z,51.37
2018-06-12T21:18:55.241Z,39.65
2018-06-12T21:21:23.572Z,46.53
2018-06-12T21:23:51.911Z,45.05
2018-06-12T21:26:20.232Z,52.67
2018-06-12T21:28:48.556Z,58.10
2018-06-12T21:31:16.881Z,57.00
2018-06-12T21:33:45.222Z,55.38
2018-06-12T21:36:13.549Z,51.25
2018-06-12T21:38:41.883Z,55.92
2018-06-12T21:41:10.208Z,47.13
2018-06-12T21:43:38.549Z,44.18
2018-06-12T21:46:06.863Z,41.98
2018-06-12T21:48:35.199Z,51.83
2018-06-12T21:51:03.522Z,48.38
2018-06-12T21:53:31.859Z,53.30
2018-06-12T21:56:00.177Z,45.05
2018-06-12T21:58:28.538Z,50.55
2018-06-12T22:00:56.857Z,45.70
2018-06-12T22:03:25.193Z,42.15
2018-06-12T22:05:53.500Z,40.55
2018-06-12T22:08:21.838Z,42.45
2018-06-12T22:10:50.176Z,44.18
2018-06-12T22:13:18.242Z,43.45
2018-06-12T22:15:46.559Z,40.83
2018-06-12T22:18:14.889Z,33.92
2018-06-12T22:20:43.200Z,32.10
2018-06-12T22:23:11.529Z,31.97
2018-06-12T22:25:39.860Z,35.88
2018-06-12T22:28:08.196Z,38.80
2018-06-12T22:30:36.502Z,35.52
2018-06-12T22:33:04.889Z,49.38
2018-06-12T22:35:33.201Z,41.20
2018-06-12T22:38:01.546Z,42.75
2018-06-12T22:40:29.865Z,47.67
2018-06-12T22:42:58.196Z,42.58
2018-06-12T22:45:26.269Z,42.00
2018-06-12T22:47:54.325Z,48.00
2018-06-12T22:50:22.682Z,38.30
2018-06-12T22:52:51.010Z,43.42
2018-06-12T22:55:19.340Z,43.25
2018-06-12T22:57:47.722Z,48.50
2018-06-12T23:00:19.616Z,37.55
2018-06-12T23:02:47.652Z,42.25
2018-06-12T23:05:16.002Z,45.38
2018-06-12T23:07:44.313Z,51.60
2018-06-12T23:10:12.673Z,46.92
2018-06-12T23:12:40.986Z,37.23
2018-06-12T23:15:09.353Z,34.03
2018-06-12T23:17:37.671Z,40.15
2018-06-12T23:20:17.266Z,43.73
2018-06-12T23:22:45.572Z,37.50
2018-06-12T23:25:13.900Z,37.73
2018-06-12T23:27:42.204Z,36.23
2018-06-12T23:30:10.537Z,32.90
2018-06-12T23:32:38.841Z,34.73
2018-06-12T23:35:07.164Z,30.72
2018-06-12T23:37:35.472Z,40.48
2018-06-12T23:40:03.832Z,31.25
2018-06-12T23:42:31.876Z,32.50
2018-06-12T23:45:00.205Z,32.80
2018-06-12T23:47:28.509Z,33.30
2018-06-12T23:49:56.840Z,34.33
2018-06-12T23:52:24.887Z,34.75
2018-06-12T23:54:53.220Z,31.42
2018-06-12T23:57:21.533Z,33.98
2018-06-12T23:59:49.878Z,35.52
